Time;durP1;ratioP1;P1;durP2;ratioP2;P2;SDS_P1;SDS_P2;PMS_P1;PMS_P2;Temp;Humidity;BMP_temperature;BMP_pressure;BME280_temperature;BME280_humidity;BME280_pressure;Samples;Min_cycle;Max_cycle;Signal;HPM_P1;HPM_P2
2022/10/18 00:00:57;;;;;;;0.85;0.85;;;15.90;1.00;;;;;;6240128;23;20455;-80
2022/10/18 00:03:26;;;;;;;2.10;1.15;;;15.90;1.00;;;;;;6239747;23;20397;-80
2022/10/18 00:05:53;;;;;;;1.30;1.20;;;15.90;1.00;;;;;;6240482;22;20394;-80
2022/10/18 00:08:20;;;;;;;1.02;1.02;;;15.90;1.00;;;;;;6240630;23;20723;-80
2022/10/18 00:10:51;;;;;;;0.90;0.90;;;16.00;1.00;;;;;;6238627;23;20443;-81
2022/10/18 00:13:19;;;;;;;0.90;0.90;;;15.90;1.00;;;;;;6240333;22;20911;-80
2022/10/18 00:15:54;;;;;;;1.10;1.10;;;16.00;1.00;;;;;;6238713;23;20416;-80
2022/10/18 00:18:21;;;;;;;1.50;1.40;;;16.00;1.00;;;;;;6240570;22;20393;-80
2022/10/18 00:21:03;;;;;;;0.98;0.98;;;16.00;1.00;;;;;;6240483;22;20389;-80
2022/10/18 00:23:31;;;;;;;0.85;0.85;;;16.00;1.00;;;;;;6239303;22;20389;-80
2022/10/18 00:26:25;;;;;;;0.82;0.80;;;15.90;1.00;;;;;;6240886;22;20390;-80
2022/10/18 00:28:55;;;;;;;1.00;1.00;;;15.90;1.00;;;;;;6236856;23;20386;-80
2022/10/18 00:31:23;;;;;;;0.60;0.60;;;15.90;1.00;;;;;;6238740;23;20874;-80
2022/10/18 00:33:53;;;;;;;0.85;0.85;;;15.90;1.00;;;;;;6240022;22;20390;-80
2022/10/18 00:36:21;;;;;;;1.10;1.10;;;15.90;1.00;;;;;;6250844;22;20718;-80
2022/10/18 00:38:48;;;;;;;1.00;1.00;;;16.00;1.00;;;;;;6239853;22;20410;-80
2022/10/18 00:41:23;;;;;;;1.13;1.13;;;15.90;1.00;;;;;;6238612;22;20451;-80
2022/10/18 00:44:03;;;;;;;0.80;0.80;;;15.90;1.00;;;;;;6240048;23;20385;-80
2022/10/18 00:46:33;;;;;;;0.55;0.55;;;15.90;1.00;;;;;;6242048;22;20931;-80
2022/10/18 00:49:03;;;;;;;1.08;1.08;;;15.90;1.00;;;;;;6240854;23;20672;-80
2022/10/18 00:52:01;;;;;;;0.90;0.90;;;15.90;1.00;;;;;;6241937;22;20432;-80
2022/10/18 00:54:38;;;;;;;1.80;1.20;;;15.80;1.00;;;;;;6118617;23;20431;-79
2022/10/18 00:57:05;;;;;;;1.13;1.13;;;15.80;1.00;;;;;;6119302;23;20400;-79
2022/10/18 00:59:35;;;;;;;1.00;1.00;;;15.70;1.00;;;;;;6119310;23;20397;-79
2022/10/18 01:02:03;;;;;;;0.88;0.85;;;15.70;1.00;;;;;;6118739;23;20427;-79
2022/10/18 01:04:30;;;;;;;1.05;1.00;;;15.60;1.00;;;;;;6128364;23;20392;-79
2022/10/18 01:07:06;;;;;;;0.90;0.90;;;15.60;1.00;;;;;;6118933;23;20455;-79
2022/10/18 01:09:54;;;;;;;0.90;0.90;;;15.60;1.00;;;;;;6119343;23;20400;-79
2022/10/18 01:12:50;;;;;;;0.90;0.90;;;15.50;1.00;;;;;;6119089;23;20396;-79
2022/10/18 01:15:30;;;;;;;1.50;1.40;;;15.50;1.00;;;;;;6118643;23;20392;-80
2022/10/18 01:18:44;;;;;;;0.68;0.68;;;15.60;1.00;;;;;;6125944;23;20400;-79
2022/10/18 01:21:34;;;;;;;0.77;0.77;;;15.60;1.00;;;;;;6031794;23;20910;-79
2022/10/18 01:24:40;;;;;;;1.10;1.10;;;15.60;1.00;;;;;;6031661;23;20401;-79
2022/10/18 01:27:38;;;;;;;0.65;0.65;;;15.70;1.00;;;;;;6041715;23;20409;-79
2022/10/18 01:30:29;;;;;;;1.02;0.82;;;15.70;1.00;;;;;;6072932;23;20918;-79
2022/10/18 01:33:04;;;;;;;1.10;0.73;;;15.80;1.00;;;;;;6133620;23;20747;-80
2022/10/18 01:35:39;;;;;;;0.60;0.60;;;15.80;1.00;;;;;;6148087;23;20387;-79
2022/10/18 01:38:11;;;;;;;1.00;1.00;;;15.80;1.00;;;;;;6133492;23;20451;-79
2022/10/18 01:40:44;;;;;;;1.10;1.10;;;15.90;1.00;;;;;;6148356;23;20394;-79
2022/10/18 01:43:13;;;;;;;1.00;1.00;;;15.90;1.00;;;;;;6147798;23;20433;-80
2022/10/18 01:45:42;;;;;;;1.15;1.13;;;15.90;1.00;;;;;;6148086;23;20803;-79
2022/10/18 01:48:12;;;;;;;1.20;1.20;;;15.90;1.00;;;;;;6148002;23;20399;-79
2022/10/18 01:50:39;;;;;;;0.95;0.93;;;15.80;1.00;;;;;;6148206;23;20398;-79
2022/10/18 01:53:22;;;;;;;1.30;1.00;;;15.90;1.00;;;;;;6123504;23;20399;-79
2022/10/18 01:56:02;;;;;;;0.70;0.70;;;15.90;1.00;;;;;;6147771;23;20398;-79
2022/10/18 01:58:52;;;;;;;0.90;0.90;;;15.90;1.00;;;;;;6225279;23;20420;-79
2022/10/18 02:01:39;;;;;;;3.58;1.10;;;15.90;1.00;;;;;;6241535;23;20409;-79
2022/10/18 02:04:30;;;;;;;0.80;0.80;;;15.90;1.00;;;;;;6239846;23;20491;-79
2022/10/18 02:07:06;;;;;;;0.98;0.98;;;15.90;1.00;;;;;;6241701;23;20397;-79
2022/10/18 02:09:41;;;;;;;1.30;1.20;;;15.90;1.00;;;;;;6250702;23;20850;-80
2022/10/18 02:12:11;;;;;;;0.80;0.80;;;15.90;1.00;;;;;;6252078;22;20386;-79
2022/10/18 02:14:39;;;;;;;1.00;1.00;;;15.90;1.00;;;;;;6239368;23;21006;-79
2022/10/18 02:17:09;;;;;;;1.40;1.30;;;15.80;1.00;;;;;;6241651;22;20389;-79
2022/10/18 02:19:49;;;;;;;0.93;0.93;;;15.80;1.00;;;;;;6241313;22;20436;-79
2022/10/18 02:22:17;;;;;;;1.00;1.00;;;15.70;1.00;;;;;;6240383;23;20390;-79
2022/10/18 02:24:50;;;;;;;1.20;1.05;;;15.60;1.00;;;;;;6250955;22;20389;-79
2022/10/18 02:27:17;;;;;;;0.85;0.85;;;15.60;1.00;;;;;;6251097;22;20761;-79
2022/10/18 02:29:45;;;;;;;0.90;0.90;;;15.50;1.00;;;;;;6241648;23;20861;-80
2022/10/18 02:32:36;;;;;;;0.82;0.82;;;15.50;1.00;;;;;;6240016;23;20408;-79
2022/10/18 02:35:28;;;;;;;1.13;1.02;;;15.50;1.00;;;;;;6250849;23;20436;-79
2022/10/18 02:37:56;;;;;;;1.30;1.20;;;15.50;1.00;;;;;;6241210;22;20401;-79
2022/10/18 02:40:26;;;;;;;1.02;1.02;;;15.50;1.00;;;;;;6239931;23;20393;-79
2022/10/18 02:42:55;;;;;;;0.85;0.85;;;15.50;1.00;;;;;;6240671;22;20390;-79
2022/10/18 02:45:23;;;;;;;1.38;1.27;;;15.50;1.00;;;;;;6241701;22;20455;-79
2022/10/18 02:47:51;;;;;;;0.82;0.82;;;15.50;1.00;;;;;;6241326;22;20394;-79
2022/10/18 02:50:18;;;;;;;1.00;1.00;;;15.50;1.00;;;;;;6241061;22;20471;-79
2022/10/18 02:52:44;;;;;;;0.95;0.95;;;15.50;1.00;;;;;;6241436;23;20460;-79
2022/10/18 02:55:11;;;;;;;0.93;0.93;;;15.50;1.10;;;;;;6240941;23;20390;-79
2022/10/18 02:57:45;;;;;;;0.75;0.75;;;15.40;3.30;;;;;;6241130;23;20394;-79
2022/10/18 03:00:12;;;;;;;0.90;0.80;;;15.50;6.10;;;;;;6251164;23;20389;-79
2022/10/18 03:02:42;;;;;;;1.38;1.27;;;15.50;9.70;;;;;;6240844;22;20394;-80
2022/10/18 03:05:12;;;;;;;1.10;1.00;;;15.60;15.70;;;;;;6250802;22;20394;-79
2022/10/18 03:07:42;;;;;;;0.90;0.90;;;15.60;15.90;;;;;;6241099;23;20394;-79
2022/10/18 03:10:08;;;;;;;1.00;1.00;;;15.60;16.30;;;;;;6241435;23;20471;-80
2022/10/18 03:12:35;;;;;;;1.52;1.23;;;15.70;17.60;;;;;;6240443;23;20925;-80
2022/10/18 03:15:02;;;;;;;1.25;1.15;;;15.70;23.30;;;;;;6240240;23;20878;-80
2022/10/18 03:17:29;;;;;;;1.00;1.00;;;15.80;29.50;;;;;;6240734;23;20476;-80
2022/10/18 03:19:56;;;;;;;1.23;1.13;;;16.00;34.80;;;;;;6239546;23;20444;-79
2022/10/18 03:22:26;;;;;;;1.17;1.07;;;16.00;37.70;;;;;;6240779;23;20455;-79
2022/10/18 03:24:54;;;;;;;1.40;1.30;;;16.00;40.70;;;;;;6250490;22;20396;-79
2022/10/18 03:27:23;;;;;;;1.38;1.35;;;16.00;42.80;;;;;;6240470;23;21032;-79
2022/10/18 03:29:50;;;;;;;1.10;1.10;;;15.90;44.00;;;;;;6239302;23;20393;-79
2022/10/18 03:32:16;;;;;;;1.20;1.10;;;15.90;40.40;;;;;;6240775;23;20390;-79
2022/10/18 03:34:43;;;;;;;1.60;1.50;;;15.90;28.50;;;;;;6238523;23;20394;-79
2022/10/18 03:37:10;;;;;;;1.15;1.13;;;15.80;19.40;;;;;;6240200;23;20873;-79
2022/10/18 03:39:39;;;;;;;3.22;1.20;;;15.70;20.80;;;;;;6240128;23;20444;-79
2022/10/18 03:42:06;;;;;;;1.05;1.05;;;15.70;23.40;;;;;;6240057;23;20416;-79
2022/10/18 03:44:36;;;;;;;1.07;0.97;;;15.70;25.20;;;;;;6237986;23;20397;-79
2022/10/18 03:47:03;;;;;;;1.52;1.20;;;15.70;26.00;;;;;;6238567;23;20909;-78
2022/10/18 03:49:29;;;;;;;1.40;1.30;;;15.60;30.90;;;;;;6240294;23;20959;-78
2022/10/18 03:51:56;;;;;;;1.23;1.10;;;15.60;38.20;;;;;;6239220;23;20396;-78
2022/10/18 03:54:25;;;;;;;0.90;0.90;;;15.60;46.00;;;;;;6250051;23;20385;-78
2022/10/18 03:56:52;;;;;;;2.23;1.33;;;15.60;52.90;;;;;;6240292;23;20412;-79
2022/10/18 03:59:19;;;;;;;1.05;1.05;;;15.60;58.20;;;;;;6238963;23;20407;-78
2022/10/18 04:01:48;;;;;;;1.10;1.10;;;15.60;62.40;;;;;;6238779;23;20520;-79
2022/10/18 04:04:14;;;;;;;0.95;0.95;;;15.60;71.10;;;;;;6239565;23;20449;-78
2022/10/18 04:06:41;;;;;;;1.30;1.05;;;15.60;75.60;;;;;;6238581;23;20927;-79
2022/10/18 04:09:09;;;;;;;1.42;1.33;;;15.60;79.30;;;;;;6240055;23;21183;-79
2022/10/18 04:11:36;;;;;;;0.93;0.93;;;15.60;79.20;;;;;;6238846;23;20436;-78
2022/10/18 04:14:02;;;;;;;0.70;0.70;;;15.60;80.30;;;;;;6240451;23;20397;-78
2022/10/18 04:16:37;;;;;;;0.57;0.57;;;15.60;76.00;;;;;;6242939;23;20401;-79
2022/10/18 04:19:03;;;;;;;0.80;0.80;;;15.50;68.50;;;;;;6252754;23;20385;-79
2022/10/18 04:21:33;;;;;;;0.95;0.77;;;15.40;66.50;;;;;;6242446;23;20389;-79
2022/10/18 04:24:03;;;;;;;3.20;0.60;;;15.30;69.90;;;;;;6242176;23;20872;-79
2022/10/18 04:26:30;;;;;;;0.90;0.68;;;15.30;78.10;;;;;;6243644;22;20393;-79
2022/10/18 04:29:00;;;;;;;0.60;0.60;;;15.30;84.60;;;;;;6241620;23;20471;-79
2022/10/18 04:31:26;;;;;;;0.73;0.60;;;15.20;90.70;;;;;;6253407;23;20679;-78
2022/10/18 04:33:56;;;;;;;0.73;0.52;;;15.30;94.00;;;;;;6251185;23;20400;-78
2022/10/18 04:36:23;;;;;;;0.55;0.55;;;15.20;97.40;;;;;;6242021;23;20954;-78
2022/10/18 04:38:49;;;;;;;0.52;0.52;;;15.20;99.90;;;;;;6252580;23;20605;-78
2022/10/18 04:41:18;;;;;;;0.50;0.50;;;15.10;99.90;;;;;;6242523;23;20484;-79
2022/10/18 04:43:45;;;;;;;0.47;0.47;;;15.10;99.90;;;;;;6241712;23;20393;-79
2022/10/18 04:46:16;;;;;;;2.30;1.00;;;15.10;99.90;;;;;;6242347;22;20386;-79
2022/10/18 04:48:48;;;;;;;0.35;0.35;;;15.10;99.90;;;;;;6241900;23;20402;-79
2022/10/18 04:51:15;;;;;;;0.40;0.40;;;15.10;99.90;;;;;;6240590;23;20385;-79
2022/10/18 04:53:41;;;;;;;0.52;0.52;;;15.20;99.90;;;;;;6241419;23;20409;-79
2022/10/18 04:56:11;;;;;;;1.10;0.50;;;15.20;99.90;;;;;;6242005;23;20865;-79
2022/10/18 04:58:38;;;;;;;0.60;0.60;;;15.10;99.90;;;;;;6239184;23;20386;-79
2022/10/18 05:01:06;;;;;;;0.65;0.65;;;15.20;99.90;;;;;;6252476;23;20404;-80
2022/10/18 05:03:33;;;;;;;1.10;0.82;;;15.20;99.90;;;;;;6241258;22;20881;-79
2022/10/18 05:06:01;;;;;;;0.70;0.70;;;15.10;99.90;;;;;;6242075;22;20401;-79
2022/10/18 05:08:30;;;;;;;1.15;1.00;;;15.20;99.90;;;;;;6242416;23;20468;-79
2022/10/18 05:11:00;;;;;;;1.00;1.00;;;15.20;99.90;;;;;;6252392;22;20713;-79
2022/10/18 05:13:33;;;;;;;0.97;0.97;;;15.20;99.90;;;;;;6241445;22;20385;-79
2022/10/18 05:15:59;;;;;;;1.05;0.95;;;15.20;99.90;;;;;;6252234;23;20730;-79
2022/10/18 05:18:26;;;;;;;1.30;0.85;;;15.20;99.90;;;;;;6240766;23;20396;-79
2022/10/18 05:20:53;;;;;;;0.70;0.70;;;15.20;99.90;;;;;;6242508;22;20389;-79
2022/10/18 05:23:20;;;;;;;0.68;0.68;;;15.20;99.90;;;;;;6241809;23;20401;-79
2022/10/18 05:25:47;;;;;;;0.73;0.73;;;15.20;99.90;;;;;;6240605;23;20420;-79
2022/10/18 05:28:14;;;;;;;2.55;1.00;;;15.20;99.90;;;;;;6240003;23;20881;-79
2022/10/18 05:31:03;;;;;;;0.70;0.70;;;15.20;99.90;;;;;;6241682;23;20390;-79
2022/10/18 05:33:30;;;;;;;0.75;0.70;;;15.20;99.90;;;;;;6241535;22;20424;-79
2022/10/18 05:35:57;;;;;;;0.55;0.55;;;15.10;99.90;;;;;;6242391;22;20390;-79
2022/10/18 05:38:24;;;;;;;2.53;1.00;;;15.20;99.90;;;;;;6242222;22;20462;-79
2022/10/18 05:40:54;;;;;;;1.53;1.17;;;15.20;99.90;;;;;;6251018;23;20788;-79
2022/10/18 05:43:21;;;;;;;1.50;0.73;;;15.20;99.90;;;;;;6239607;23;20385;-79
2022/10/18 05:45:50;;;;;;;0.90;0.90;;;15.20;99.90;;;;;;6252132;23;20900;-79
2022/10/18 05:48:17;;;;;;;1.10;1.10;;;15.20;99.90;;;;;;6241640;23;20401;-79
2022/10/18 05:50:44;;;;;;;1.17;1.07;;;15.20;99.90;;;;;;6241753;23;20397;-79
2022/10/18 05:53:14;;;;;;;0.93;0.90;;;15.20;99.90;;;;;;6249761;23;20401;-79
2022/10/18 05:56:01;;;;;;;0.82;0.82;;;15.20;99.90;;;;;;6240093;23;20378;-79
2022/10/18 05:58:28;;;;;;;0.95;0.85;;;15.20;99.90;;;;;;6241570;23;20386;-79
2022/10/18 06:00:58;;;;;;;0.83;0.83;;;15.30;99.90;;;;;;6240284;23;20416;-79
2022/10/18 06:03:31;;;;;;;0.55;0.55;;;15.20;99.90;;;;;;6251677;22;20778;-79
2022/10/18 06:06:07;;;;;;;0.90;0.60;;;15.20;99.90;;;;;;6242492;23;20401;-79
2022/10/18 06:08:37;;;;;;;1.27;1.10;;;15.10;99.90;;;;;;6239823;23;20489;-79
2022/10/18 06:11:22;;;;;;;0.85;0.60;;;15.10;99.90;;;;;;6251280;22;20768;-79
2022/10/18 06:13:52;;;;;;;0.70;0.70;;;15.10;99.90;;;;;;6240666;23;20385;-79
2022/10/18 06:16:20;;;;;;;0.80;0.80;;;15.10;99.90;;;;;;6251959;23;20386;-79
2022/10/18 06:18:52;;;;;;;0.50;0.50;;;15.10;99.90;;;;;;6239750;23;20424;-79
2022/10/18 06:21:20;;;;;;;0.70;0.70;;;15.10;99.90;;;;;;6241713;22;20636;-79
2022/10/18 06:23:55;;;;;;;0.77;0.70;;;15.10;99.90;;;;;;6240395;23;20390;-79
2022/10/18 06:26:22;;;;;;;0.80;0.80;;;15.10;99.90;;;;;;6241387;22;20443;-79
2022/10/18 06:28:49;;;;;;;1.30;1.10;;;15.10;99.90;;;;;;6241144;23;20390;-78
2022/10/18 06:31:16;;;;;;;1.80;0.77;;;15.10;99.90;;;;;;6239491;23;20390;-79
2022/10/18 06:33:44;;;;;;;0.73;0.73;;;15.20;99.90;;;;;;6240584;22;20389;-79
2022/10/18 06:36:14;;;;;;;0.70;0.70;;;15.10;99.90;;;;;;6251343;22;20390;-78
2022/10/18 06:38:41;;;;;;;0.63;0.63;;;15.20;99.90;;;;;;6239332;23;20398;-79
2022/10/18 06:41:08;;;;;;;0.77;0.77;;;15.10;99.90;;;;;;6251133;23;20382;-79
2022/10/18 06:43:35;;;;;;;1.50;0.70;;;15.10;99.90;;;;;;6238892;23;20885;-79
2022/10/18 06:46:05;;;;;;;0.80;0.80;;;15.10;99.90;;;;;;6239305;23;20885;-78
2022/10/18 06:48:37;;;;;;;0.73;0.40;;;15.10;99.90;;;;;;6240916;22;20877;-77
2022/10/18 06:51:10;;;;;;;0.53;0.53;;;15.10;99.90;;;;;;6240677;22;20932;-77
2022/10/18 06:53:38;;;;;;;0.68;0.68;;;15.10;99.90;;;;;;6240495;22;20718;-78
2022/10/18 06:56:24;;;;;;;0.60;0.60;;;15.10;99.90;;;;;;6240885;22;20594;-78
2022/10/18 06:58:53;;;;;;;0.60;0.60;;;15.20;99.90;;;;;;6240094;23;20397;-78
2022/10/18 07:01:21;;;;;;;3.10;1.25;;;15.20;99.90;;;;;;6251414;23;20751;-78
2022/10/18 07:03:51;;;;;;;0.95;0.77;;;15.20;99.90;;;;;;6240200;22;20394;-78
2022/10/18 07:06:22;;;;;;;0.90;0.65;;;15.20;99.90;;;;;;6240925;22;20389;-78
2022/10/18 07:08:51;;;;;;;0.70;0.70;;;15.30;99.90;;;;;;6241043;22;20401;-78
2022/10/18 07:11:25;;;;;;;0.50;0.50;;;15.40;99.90;;;;;;6239152;23;20707;-79
2022/10/18 07:13:53;;;;;;;0.80;0.80;;;15.50;99.90;;;;;;6238911;23;20397;-79
2022/10/18 07:16:20;;;;;;;0.80;0.80;;;15.60;99.90;;;;;;6242987;22;20456;-79
2022/10/18 07:18:50;;;;;;;1.20;0.93;;;15.60;99.90;;;;;;6239200;23;20394;-79
2022/10/18 07:21:21;;;;;;;0.60;0.60;;;15.60;99.90;;;;;;6249467;23;20454;-79
2022/10/18 07:23:53;;;;;;;0.73;0.73;;;15.70;99.90;;;;;;6239178;23;20413;-84
2022/10/18 07:26:32;;;;;;;1.00;0.90;;;15.70;99.90;;;;;;6239447;23;20385;-80
2022/10/18 07:29:06;;;;;;;0.67;0.67;;;15.80;99.90;;;;;;6238917;23;20902;-80
2022/10/18 07:31:33;;;;;;;0.60;0.57;;;15.90;99.90;;;;;;6240945;22;20832;-80
2022/10/18 07:34:00;;;;;;;0.75;0.75;;;16.00;99.90;;;;;;6248831;23;20436;-77
2022/10/18 07:36:26;;;;;;;0.75;0.75;;;15.90;99.90;;;;;;6241299;22;20389;-80
2022/10/18 07:39:08;;;;;;;1.50;0.80;;;16.00;99.90;;;;;;6251319;23;20389;-85
2022/10/18 07:41:36;;;;;;;0.43;0.43;;;16.00;99.90;;;;;;6241105;23;20394;-77
2022/10/18 07:44:03;;;;;;;1.00;0.80;;;16.10;99.90;;;;;;6251182;22;20382;-78
2022/10/18 07:46:30;;;;;;;0.70;0.70;;;16.10;99.90;;;;;;6241613;23;20448;-78
2022/10/18 07:48:59;;;;;;;0.70;0.70;;;16.20;99.90;;;;;;6242738;22;20394;-78
2022/10/18 07:51:33;;;;;;;1.10;0.82;;;16.20;99.90;;;;;;6247882;22;20390;-78
2022/10/18 07:54:01;;;;;;;0.90;0.90;;;16.20;99.90;;;;;;6239868;22;20389;-78
2022/10/18 07:56:29;;;;;;;2.25;0.95;;;16.20;99.90;;;;;;6237481;23;21326;-79
2022/10/18 07:58:55;;;;;;;1.00;1.00;;;16.20;99.90;;;;;;6238419;23;20951;-78
2022/10/18 08:01:23;;;;;;;1.15;0.77;;;16.30;99.90;;;;;;6240878;22;20645;-78
2022/10/18 08:03:51;;;;;;;0.73;0.73;;;16.40;99.90;;;;;;6238283;23;20397;-78
2022/10/18 08:06:22;;;;;;;0.93;0.93;;;16.40;99.90;;;;;;6240227;22;20390;-78
2022/10/18 08:08:56;;;;;;;0.55;0.55;;;16.40;99.90;;;;;;6238700;23;20773;-78
2022/10/18 08:11:24;;;;;;;1.23;0.80;;;16.50;99.90;;;;;;6250612;23;20390;-78
2022/10/18 08:13:53;;;;;;;0.88;0.82;;;16.60;99.90;;;;;;6240418;22;20385;-78
2022/10/18 08:16:25;;;;;;;0.70;0.70;;;16.80;99.90;;;;;;6249961;22;20385;-79
2022/10/18 08:18:52;;;;;;;0.60;0.60;;;17.00;99.90;;;;;;6238654;23;20421;-79
2022/10/18 08:21:20;;;;;;;0.98;0.90;;;17.00;99.90;;;;;;6238956;23;20431;-79
2022/10/18 08:23:50;;;;;;;1.00;1.00;;;17.00;99.90;;;;;;6250090;22;20381;-79
2022/10/18 08:26:25;;;;;;;1.35;1.05;;;17.00;99.90;;;;;;6250477;23;20390;-79
2022/10/18 08:28:52;;;;;;;0.73;0.73;;;17.10;99.90;;;;;;6239711;23;20897;-79
2022/10/18 08:31:35;;;;;;;0.82;0.82;;;17.30;99.90;;;;;;6240419;23;20393;-79
2022/10/18 08:34:02;;;;;;;0.70;0.70;;;17.40;99.90;;;;;;6239737;22;20390;-79
2022/10/18 08:36:29;;;;;;;0.60;0.60;;;17.60;99.90;;;;;;6240197;23;20902;-79
2022/10/18 08:38:55;;;;;;;0.90;0.80;;;17.70;99.90;;;;;;6240493;23;20390;-79
2022/10/18 08:41:28;;;;;;;0.85;0.85;;;17.90;99.90;;;;;;6238723;23;20390;-79
2022/10/18 08:44:00;;;;;;;1.00;1.00;;;18.10;99.90;;;;;;6239525;23;20401;-79
2022/10/18 08:46:35;;;;;;;0.73;0.73;;;18.50;49.40;;;;;;6238306;23;20455;-79
2022/10/18 08:49:10;;;;;;;0.82;0.80;;;18.90;1.00;;;;;;6240179;22;20394;-79
2022/10/18 08:51:49;;;;;;;0.73;0.73;;;19.20;1.00;;;;;;6248893;23;20444;-79
2022/10/18 08:54:38;;;;;;;0.50;0.50;;;19.20;1.00;;;;;;6237211;23;20393;-79
2022/10/18 08:57:13;;;;;;;0.75;0.70;;;19.50;99.90;;;;;;6239556;22;20412;-79
2022/10/18 08:59:41;;;;;;;0.70;0.70;;;19.70;99.90;;;;;;6241071;22;20481;-79
2022/10/18 09:02:10;;;;;;;1.00;0.88;;;19.70;99.90;;;;;;6242372;23;20840;-79
2022/10/18 09:04:50;;;;;;;0.70;0.70;;;19.40;99.90;;;;;;6241810;23;20390;-79
2022/10/18 09:07:35;;;;;;;0.80;0.75;;;19.10;99.90;;;;;;6240565;23;20874;-79
2022/10/18 09:10:06;;;;;;;1.52;0.60;;;19.00;99.90;;;;;;6240400;23;20389;-79
2022/10/18 09:13:02;;;;;;;0.70;0.70;;;19.00;1.00;;;;;;6240258;23;20873;-79
2022/10/18 09:15:41;;;;;;;0.90;0.90;;;18.80;99.90;;;;;;6204475;23;20393;-78
2022/10/18 09:18:35;;;;;;;0.60;0.60;;;18.60;99.90;;;;;;6240463;23;20893;-79
2022/10/18 09:21:22;;;;;;;1.00;1.00;;;18.40;1.00;;;;;;6250051;23;20389;-79
2022/10/18 09:23:57;;;;;;;0.70;0.70;;;18.40;1.00;;;;;;6240115;23;20390;-79
2022/10/18 09:26:25;;;;;;;0.80;0.80;;;18.40;99.90;;;;;;6241952;23;20726;-79
2022/10/18 09:29:12;;;;;;;0.70;0.70;;;18.20;1.00;;;;;;6240589;23;20714;-79
2022/10/18 09:32:03;;;;;;;0.70;0.70;;;18.20;99.90;;;;;;6242235;23;20390;-79
2022/10/18 09:34:39;;;;;;;0.70;0.68;;;18.20;99.90;;;;;;6241168;23;20869;-79
2022/10/18 09:37:28;;;;;;;0.60;0.60;;;18.20;1.00;;;;;;6242088;22;20386;-79
2022/10/18 09:40:05;;;;;;;1.17;0.50;;;18.20;1.00;;;;;;6241360;22;20393;-78
2022/10/18 09:42:39;;;;;;;0.68;0.68;;;18.10;99.90;;;;;;6240400;23;20393;-79
2022/10/18 09:45:15;;;;;;;0.40;0.40;;;18.00;99.90;;;;;;6241172;22;20394;-79
2022/10/18 09:48:00;;;;;;;0.63;0.63;;;18.20;1.00;;;;;;6241531;23;20434;-78
2022/10/18 09:50:44;;;;;;;0.30;0.30;;;18.20;1.00;;;;;;6240605;23;20397;-78
2022/10/18 09:53:41;;;;;;;0.32;0.32;;;18.40;1.00;;;;;;6241515;22;20462;-78
2022/10/18 09:56:19;;;;;;;0.50;0.50;;;18.80;1.00;;;;;;6250260;23;20389;-79
2022/10/18 09:58:47;;;;;;;0.40;0.40;;;19.00;99.90;;;;;;6241833;22;20452;-79
2022/10/18 10:01:19;;;;;;;2.60;0.50;;;19.20;1.00;;;;;;6239650;23;20571;-79
2022/10/18 10:03:46;;;;;;;0.30;0.30;;;19.50;1.00;;;;;;6239377;23;20390;-79
2022/10/18 10:06:16;;;;;;;0.30;0.30;;;19.90;1.00;;;;;;6240633;23;20467;-79
2022/10/18 10:08:47;;;;;;;0.50;0.50;;;20.60;99.90;;;;;;6240805;23;20464;-79
2022/10/18 10:11:34;;;;;;;0.30;0.30;;;21.30;1.00;;;;;;6241013;22;20458;-79
2022/10/18 10:14:22;;;;;;;0.30;0.30;;;22.10;1.00;;;;;;6240430;22;20401;-79
2022/10/18 10:16:50;;;;;;;0.35;0.35;;;22.70;1.00;;;;;;6241581;22;20394;-80
2022/10/18 10:19:23;;;;;;;0.38;0.38;;;22.70;99.90;;;;;;6241691;22;20389;-79
2022/10/18 10:21:54;;;;;;;0.40;0.40;;;22.60;99.90;;;;;;6249741;23;20717;-79
2022/10/18 10:24:48;;;;;;;0.30;0.30;;;22.50;99.90;;;;;;6240851;22;20386;-80
2022/10/18 10:27:36;;;;;;;0.40;0.40;;;22.60;99.90;;;;;;6228942;23;20467;-79
2022/10/18 10:30:19;;;;;;;0.30;0.30;;;22.80;99.90;;;;;;6241533;22;20394;-79
2022/10/18 10:32:48;;;;;;;0.50;0.50;;;22.90;99.90;;;;;;6251106;22;20460;-80
2022/10/18 10:35:30;;;;;;;0.30;0.30;;;22.90;99.90;;;;;;6240869;23;20920;-80
2022/10/18 10:38:25;;;;;;;0.47;0.47;;;22.70;99.90;;;;;;6239963;23;20715;-80
2022/10/18 10:40:52;;;;;;;0.30;0.30;;;22.30;99.90;;;;;;6241673;22;20386;-80
2022/10/18 10:43:34;;;;;;;0.35;0.35;;;22.20;99.90;;;;;;6240311;22;20390;-79
2022/10/18 10:46:14;;;;;;;0.30;0.30;;;22.40;99.90;;;;;;6251693;22;20472;-80
2022/10/18 10:48:48;;;;;;;0.22;0.22;;;22.30;99.90;;;;;;6240881;22;20440;-81
2022/10/18 10:51:45;;;;;;;0.30;0.30;;;22.10;99.90;;;;;;6240633;22;20386;-81
2022/10/18 10:54:34;;;;;;;0.30;0.30;;;21.60;99.90;;;;;;6240911;22;20456;-80
2022/10/18 10:57:11;;;;;;;0.20;0.20;;;21.30;99.90;;;;;;6241971;22;20488;-80
2022/10/18 10:59:44;;;;;;;0.20;0.20;;;21.10;99.90;;;;;;6241432;22;20393;-80
2022/10/18 11:02:16;;;;;;;0.25;0.25;;;21.00;99.90;;;;;;6242578;23;20402;-79
2022/10/18 11:04:47;;;;;;;0.30;0.20;;;21.00;99.90;;;;;;6243540;22;20417;-80
2022/10/18 11:07:34;;;;;;;0.20;0.20;;;20.90;99.90;;;;;;6257564;23;20428;-80
2022/10/18 11:10:17;;;;;;;0.80;0.20;;;20.90;99.90;;;;;;6239425;23;20397;-80
2022/10/18 11:13:02;;;;;;;0.20;0.20;;;20.90;99.90;;;;;;6241050;22;20390;-80
2022/10/18 11:15:35;;;;;;;0.20;0.20;;;21.00;99.90;;;;;;6240854;22;20390;-80
2022/10/18 11:18:26;;;;;;;0.30;0.30;;;21.10;99.90;;;;;;6241139;23;20425;-81
2022/10/18 11:21:10;;;;;;;0.40;0.40;;;21.10;99.90;;;;;;6240707;22;20394;-80
2022/10/18 11:23:42;;;;;;;0.20;0.20;;;21.30;99.90;;;;;;6238692;23;20390;-80
2022/10/18 11:26:11;;;;;;;0.30;0.30;;;21.40;99.90;;;;;;6250962;22;20877;-80
2022/10/18 11:28:47;;;;;;;0.27;0.27;;;21.40;99.90;;;;;;6240736;23;20390;-80
2022/10/18 11:31:31;;;;;;;1.00;0.50;;;21.50;99.90;;;;;;6240714;23;20425;-80
2022/10/18 11:34:01;;;;;;;0.30;0.30;;;21.60;99.90;;;;;;6250254;22;20422;-81
2022/10/18 11:37:02;;;;;;;0.30;0.30;;;21.70;99.90;;;;;;6239138;23;20385;-80
2022/10/18 11:39:54;;;;;;;0.20;0.20;;;21.70;99.90;;;;;;6239166;23;20418;-80
2022/10/18 11:42:23;;;;;;;0.30;0.30;;;22.10;99.90;;;;;;6239461;23;20475;-80
2022/10/18 11:44:57;;;;;;;0.20;0.20;;;22.70;99.90;;;;;;6240490;23;20405;-80
2022/10/18 11:47:46;;;;;;;0.20;0.20;;;22.80;99.90;;;;;;6239153;23;20866;-81
2022/10/18 11:50:44;;;;;;;0.20;0.20;;;22.80;99.90;;;;;;6240901;22;20394;-80
2022/10/18 11:53:45;;;;;;;0.20;0.20;;;22.60;99.90;;;;;;6234701;22;20394;-80
2022/10/18 11:56:45;;;;;;;0.30;0.20;;;23.10;99.90;;;;;;6250622;22;20389;-81
2022/10/18 11:59:42;;;;;;;0.90;0.30;;;23.90;99.90;;;;;;6240754;23;20431;-81
2022/10/18 12:02:36;;;;;;;0.30;0.30;;;23.80;99.90;;;;;;6240411;22;20881;-81
2022/10/18 12:05:04;;;;;;;0.20;0.20;;;23.50;99.90;;;;;;6239026;23;20447;-81
2022/10/18 12:08:01;;;;;;;0.20;0.20;;;23.50;99.90;;;;;;6240509;22;20408;-81
2022/10/18 12:10:40;;;;;;;0.20;0.20;;;23.60;99.90;;;;;;6239899;22;20878;-81
2022/10/18 12:13:33;;;;;;;0.20;0.20;;;23.30;99.90;;;;;;6240177;22;20413;-81
2022/10/18 12:16:04;;;;;;;0.28;0.28;;;23.10;99.90;;;;;;6239451;23;20390;-81
2022/10/18 12:18:31;;;;;;;0.20;0.20;;;23.10;99.90;;;;;;6239308;23;20398;-80
2022/10/18 12:20:59;;;;;;;0.20;0.20;;;23.30;99.90;;;;;;6238536;23;20386;-81
2022/10/18 12:23:28;;;;;;;0.20;0.20;;;23.80;99.90;;;;;;6238446;23;20389;-80
2022/10/18 12:26:02;;;;;;;0.20;0.20;;;24.10;99.90;;;;;;6240635;23;20463;-81
2022/10/18 12:28:50;;;;;;;0.20;0.20;;;24.30;99.90;;;;;;6240597;22;20448;-80
2022/10/18 12:31:26;;;;;;;0.20;0.20;;;24.70;99.90;;;;;;6240167;23;20737;-80
2022/10/18 12:33:58;;;;;;;0.20;0.20;;;25.40;99.90;;;;;;6239948;22;20392;-80
2022/10/18 12:36:52;;;;;;;0.20;0.20;;;25.80;99.90;;;;;;6241770;22;20725;-80
2022/10/18 12:39:47;;;;;;;0.20;0.20;;;26.40;99.90;;;;;;6240678;23;20389;-80
2022/10/18 12:42:46;;;;;;;0.10;0.10;;;26.70;99.90;;;;;;6261828;22;20412;-80
2022/10/18 12:45:31;;;;;;;0.20;0.20;;;26.40;99.90;;;;;;6239909;23;20877;-80
2022/10/18 12:48:04;;;;;;;0.20;0.20;;;25.50;99.90;;;;;;6240479;23;20413;-80
2022/10/18 12:50:37;;;;;;;0.30;0.30;;;24.90;99.90;;;;;;6241889;22;20394;-79
2022/10/18 12:53:28;;;;;;;0.20;0.20;;;24.60;99.90;;;;;;6241562;22;20390;-80
2022/10/18 12:56:27;;;;;;;0.20;0.20;;;24.20;99.90;;;;;;6241765;23;20870;-80
2022/10/18 12:59:12;;;;;;;0.20;0.20;;;24.00;99.90;;;;;;6241446;22;20389;-80
2022/10/18 13:01:51;;;;;;;0.13;0.13;;;23.90;99.90;;;;;;6240615;23;20459;-79
2022/10/18 13:04:27;;;;;;;0.20;0.20;;;24.10;99.90;;;;;;6251670;23;20394;-79
2022/10/18 13:06:57;;;;;;;0.20;0.20;;;24.30;99.90;;;;;;6242068;23;20393;-80
2022/10/18 13:09:38;;;;;;;0.30;0.30;;;24.10;99.90;;;;;;6240094;23;20397;-80
2022/10/18 13:12:11;;;;;;;0.40;0.20;;;24.50;99.90;;;;;;6252420;22;20397;-80
2022/10/18 13:14:52;;;;;;;0.20;0.20;;;25.50;99.90;;;;;;6241052;22;20394;-80
2022/10/18 13:17:44;;;;;;;0.20;0.20;;;25.90;99.90;;;;;;6241515;23;20385;-80
2022/10/18 13:20:36;;;;;;;0.20;0.20;;;25.40;99.90;;;;;;6242132;23;20424;-79
2022/10/18 13:23:30;;;;;;;0.20;0.20;;;24.30;99.90;;;;;;6241367;23;20386;-79
2022/10/18 13:26:24;;;;;;;0.20;0.20;;;23.30;99.90;;;;;;6241989;23;20386;-79
2022/10/18 13:29:13;;;;;;;0.68;0.57;;;22.10;99.90;;;;;;6240121;23;20460;-79